Accueil
METAR-TAF:

METAR-TAF

Aéroports :

Beverly, Massachusetts, États-Unis

latitude: 42-35-01N, longitude: 070-54-59W, altitude: 33 m

Observation

Le bulletin a été fait il y a 27 minutes, à 18:53 UTC
Vent 4 kt de direction variable
Température 26°C
Humidité 74%
Pression 1014 hPa
Visibilité: 16.1 km
Quelques nuages à une hauteur de 1700 ft

METAR: KBVY 151853Z VRB04KT 10SM FEW017 26/21 A2995 RMK AO2 SLP135 T02610211

Heure: 15:20 (19:20 UTC)


TAF: absent

Observations et prévisions météorologiques de plus de 4000 aéroports (messages METAR et TAF).

Les stations disponibles sont représentées par des disques jaunes et rouges sur la carte.

Passer la souris dessus pour voir le nom de la station.

Cliquer dessus pour voir les observations et prévisions météorologiques.

Pour changer de carte: cliquez sur les boutons verts avec une croix noire pour zoomer, sur le bouton vert avec un tiret pour effectuer un zoom arrière, ou sur les flèches vertes pour les cartes adjacentes.


METAR-TAF: